createdAt,value
2023-01-18T00:04:33.315Z,98017.69
2023-01-18T00:09:25.797Z,98022.66
2023-01-18T00:14:19.561Z,98013.22
2023-01-18T00:19:14.012Z,97990.81
2023-01-18T00:24:11.054Z,98029.91
2023-01-18T00:29:03.560Z,97990.66
2023-01-18T00:33:58.157Z,97990.66
2023-01-18T00:38:52.581Z,98006.41
2023-01-18T00:43:46.733Z,98013.50
2023-01-18T00:48:40.558Z,98034.41
2023-01-18T00:53:57.383Z,98049.47
2023-01-18T00:58:50.544Z,98044.47
2023-01-18T01:04:01.905Z,98033.38
2023-01-18T01:08:54.915Z,98023.56
2023-01-18T01:14:06.633Z,98049.59
2023-01-18T01:19:18.129Z,98040.84
2023-01-18T01:24:30.251Z,98020.34
2023-01-18T01:29:23.623Z,98029.84
2023-01-18T01:34:17.075Z,98037.78
2023-01-18T01:39:16.723Z,98058.28
2023-01-18T01:44:19.551Z,98073.91
2023-01-18T01:49:18.057Z,98100.22
2023-01-18T01:54:18.858Z,98089.78
2023-01-18T01:59:11.932Z,98078.38
2023-01-18T02:04:05.721Z,98066.94
2023-01-18T02:09:23.499Z,98069.13
2023-01-18T02:14:16.804Z,98051.19
2023-01-18T02:19:20.709Z,98112.63
2023-01-18T02:24:31.059Z,98142.75
2023-01-18T02:29:36.617Z,98159.59
2023-01-18T02:34:42.819Z,98150.00
2023-01-18T02:39:56.844Z,98155.28
2023-01-18T02:45:07.556Z,98145.34
2023-01-18T02:50:07.197Z,98122.78
2023-01-18T02:55:00.701Z,98113.44
2023-01-18T02:59:55.988Z,98118.47
2023-01-18T03:04:56.987Z,98109.72
2023-01-18T03:09:56.334Z,98104.66
2023-01-18T03:15:08.697Z,98122.13
2023-01-18T03:20:10.609Z,98118.63
2023-01-18T03:25:03.683Z,98127.44
2023-01-18T03:30:14.071Z,98143.03
2023-01-18T03:35:15.083Z,98137.69
2023-01-18T03:40:10.839Z,98174.66
2023-01-18T03:45:16.333Z,98172.63
2023-01-18T03:50:09.050Z,98165.00
2023-01-18T03:55:32.455Z,98168.00
2023-01-18T04:00:26.034Z,98155.69
2023-01-18T04:05:19.024Z,98169.50
2023-01-18T04:10:12.298Z,98168.16
2023-01-18T04:15:05.203Z,98162.03
2023-01-18T04:19:59.463Z,98175.94
2023-01-18T04:24:52.434Z,98159.66
2023-01-18T04:29:45.635Z,98160.16
2023-01-18T04:34:38.327Z,98149.06
2023-01-18T04:39:30.389Z,98178.91
2023-01-18T04:44:22.964Z,98162.94
2023-01-18T04:49:17.845Z,98181.03
2023-01-18T04:54:11.883Z,98212.19
2023-01-18T04:59:05.710Z,98247.28
2023-01-18T05:03:59.352Z,98236.72
2023-01-18T05:08:52.976Z,98217.56
2023-01-18T05:13:46.774Z,98228.91
2023-01-18T05:18:39.451Z,98236.06
2023-01-18T05:23:31.786Z,98250.25
2023-01-18T05:28:26.319Z,98226.69
2023-01-18T05:33:19.963Z,98256.66
2023-01-18T05:38:14.162Z,98254.84
2023-01-18T05:43:07.738Z,98257.19
2023-01-18T05:48:01.659Z,98246.91
2023-01-18T05:52:55.049Z,98235.56
2023-01-18T05:57:48.715Z,98267.63
2023-01-18T06:02:42.478Z,98272.16
2023-01-18T06:07:35.059Z,98300.38
2023-01-18T06:12:28.035Z,98291.97
2023-01-18T06:17:20.908Z,98266.41
2023-01-18T06:22:15.014Z,98281.03
2023-01-18T06:27:08.333Z,98308.84
2023-01-18T06:32:01.708Z,98324.50
2023-01-18T06:36:55.359Z,98306.56
2023-01-18T06:41:48.317Z,98304.53
2023-01-18T06:46:43.802Z,98258.75
2023-01-18T06:51:36.868Z,98269.06
2023-01-18T06:56:30.289Z,98292.66
2023-01-18T07:01:23.900Z,98295.25
2023-01-18T07:06:16.054Z,98324.72
2023-01-18T07:11:11.032Z,98292.19
2023-01-18T07:16:08.360Z,98355.00
2023-01-18T07:21:09.482Z,98353.47
2023-01-18T07:26:07.255Z,98345.75
2023-01-18T07:31:01.081Z,98348.47
2023-01-18T07:35:54.671Z,98378.56
2023-01-18T07:40:50.723Z,98365.84
2023-01-18T07:45:49.507Z,98404.75
2023-01-18T07:50:43.410Z,98400.28
2023-01-18T07:55:37.896Z,98411.84
2023-01-18T08:00:30.803Z,98395.84
2023-01-18T08:05:28.492Z,98389.84
2023-01-18T08:10:22.060Z,98386.06
2023-01-18T08:15:14.988Z,98421.47
2023-01-18T08:20:11.136Z,98439.19
2023-01-18T08:25:05.166Z,98466.34
2023-01-18T08:29:58.258Z,98467.44
2023-01-18T08:34:51.993Z,98442.34
2023-01-18T08:39:45.373Z,98485.31
2023-01-18T08:44:39.158Z,98490.34
2023-01-18T08:49:33.459Z,98511.47
2023-01-18T08:54:26.782Z,98494.13
2023-01-18T08:59:21.083Z,98526.38
2023-01-18T09:04:14.549Z,98527.78
2023-01-18T09:09:06.522Z,98551.34
2023-01-18T09:14:01.842Z,98568.50
2023-01-18T09:18:56.358Z,98569.16
2023-01-18T09:23:49.858Z,98583.13
2023-01-18T09:28:44.861Z,98586.16
2023-01-18T09:33:38.273Z,98562.69
2023-01-18T09:38:32.384Z,98554.22
2023-01-18T09:43:35.629Z,98568.50
2023-01-18T09:48:38.006Z,98602.22
2023-01-18T09:54:12.095Z,98615.72
2023-01-18T09:59:20.200Z,98616.72
2023-01-18T10:04:24.025Z,98621.59
2023-01-18T10:09:34.863Z,98607.16
2023-01-18T10:14:49.297Z,98595.63
2023-01-18T10:19:42.638Z,98602.94
2023-01-18T10:24:49.608Z,98609.81
2023-01-18T10:29:59.652Z,98600.16
2023-01-18T10:34:52.963Z,98566.22
2023-01-18T10:39:52.415Z,98620.81
2023-01-18T10:44:45.965Z,98592.97
2023-01-18T10:49:44.283Z,98604.84
2023-01-18T10:54:37.692Z,98606.94
2023-01-18T10:59:42.331Z,98598.03
2023-01-18T11:04:34.562Z,98603.91
2023-01-18T11:09:41.952Z,98604.75
2023-01-18T11:14:34.686Z,98603.50
2023-01-18T11:19:26.744Z,98619.25
2023-01-18T11:24:27.657Z,98624.25
2023-01-18T11:29:25.142Z,98624.94
2023-01-18T11:34:30.405Z,98589.72
2023-01-18T11:39:26.392Z,98603.38
2023-01-18T11:44:35.472Z,98628.16
2023-01-18T11:49:57.983Z,98635.81
2023-01-18T11:55:23.540Z,98643.34
2023-01-18T12:00:20.655Z,98641.50
2023-01-18T12:05:33.938Z,98639.44
2023-01-18T12:10:33.086Z,98615.03
2023-01-18T12:15:53.257Z,98649.34
2023-01-18T12:21:13.700Z,98643.09
2023-01-18T12:26:13.011Z,98625.72
2023-01-18T12:31:14.548Z,98634.06
2023-01-18T12:36:19.813Z,98599.97
2023-01-18T12:41:31.869Z,98631.00
2023-01-18T12:46:34.024Z,98603.72
2023-01-18T12:51:32.528Z,98630.59
2023-01-18T12:56:43.693Z,98623.38
2023-01-18T13:01:47.181Z,98606.66
2023-01-18T13:06:42.152Z,98597.63
2023-01-18T13:11:38.292Z,98604.59
2023-01-18T13:17:20.277Z,98608.91
2023-01-18T13:22:37.391Z,98610.72
2023-01-18T13:27:31.661Z,98607.63
2023-01-18T13:32:36.535Z,98609.44
2023-01-18T13:37:56.305Z,98610.44
2023-01-18T13:42:50.276Z,98635.09
2023-01-18T13:47:52.088Z,98636.34
2023-01-18T13:52:46.025Z,98611.41
2023-01-18T13:57:39.629Z,98637.44
2023-01-18T14:02:43.956Z,98612.09
2023-01-18T14:07:42.112Z,98629.94
2023-01-18T14:13:09.230Z,98636.63
2023-01-18T14:18:03.395Z,98639.13
2023-01-18T14:23:13.631Z,98653.19
2023-01-18T14:28:15.322Z,98646.31
2023-01-18T14:33:32.700Z,98679.50
2023-01-18T14:38:27.177Z,98688.16
2023-01-18T14:43:27.635Z,98703.75
2023-01-18T14:48:23.022Z,98718.22
2023-01-18T14:53:28.011Z,98706.22
2023-01-18T14:58:22.160Z,98709.28
2023-01-18T15:03:26.687Z,98722.69
2023-01-18T15:08:21.339Z,98729.34
2023-01-18T15:13:19.623Z,98713.19
2023-01-18T15:18:24.541Z,98723.88
2023-01-18T15:23:17.740Z,98743.44
2023-01-18T15:28:23.205Z,98742.59
2023-01-18T15:33:16.718Z,98719.44
2023-01-18T15:38:12.768Z,98725.88
2023-01-18T15:43:23.187Z,98739.69
2023-01-18T15:48:22.868Z,98726.59
2023-01-18T15:53:35.592Z,98732.00
2023-01-18T15:58:37.433Z,98719.03
2023-01-18T16:04:00.733Z,98727.56
2023-01-18T16:08:58.955Z,98720.31
2023-01-18T16:13:57.631Z,98704.56
2023-01-18T16:18:52.398Z,98683.25
2023-01-18T16:23:49.552Z,98689.25
2023-01-18T16:28:43.219Z,98700.53
2023-01-18T16:33:37.889Z,98690.09
2023-01-18T16:38:31.034Z,98739.13
2023-01-18T16:43:29.098Z,98695.63
2023-01-18T16:48:43.192Z,98733.81
2023-01-18T16:53:38.135Z,98740.91
2023-01-18T16:58:34.247Z,98757.78
2023-01-18T17:03:28.727Z,98766.94
2023-01-18T17:08:22.030Z,98769.34
2023-01-18T17:13:16.626Z,98732.66
2023-01-18T17:18:40.009Z,98783.53
2023-01-18T17:23:36.961Z,98755.50
2023-01-18T17:28:30.346Z,98784.50
2023-01-18T17:33:25.643Z,98780.28
2023-01-18T17:38:25.151Z,98801.75
2023-01-18T17:43:34.664Z,98786.28
2023-01-18T17:48:28.636Z,98807.59
2023-01-18T17:53:21.637Z,98825.97
2023-01-18T17:58:16.305Z,98801.09
2023-01-18T18:03:10.039Z,98821.22
2023-01-18T18:08:03.379Z,98816.13
2023-01-18T18:12:56.906Z,98846.00
2023-01-18T18:17:50.225Z,98835.47
2023-01-18T18:22:44.006Z,98847.22
2023-01-18T18:27:45.410Z,98883.19
2023-01-18T18:32:39.829Z,98881.00
2023-01-18T18:37:32.573Z,98880.31
2023-01-18T18:42:26.985Z,98886.19
2023-01-18T18:47:19.607Z,98909.03
2023-01-18T18:52:13.223Z,98891.06
2023-01-18T18:57:06.643Z,98895.41
2023-01-18T19:02:00.079Z,98882.63
2023-01-18T19:06:54.312Z,98896.81
2023-01-18T19:11:55.071Z,98885.22
2023-01-18T19:16:49.199Z,98907.88
2023-01-18T19:21:43.159Z,98883.84
2023-01-18T19:26:37.175Z,98888.47
2023-01-18T19:31:31.530Z,98868.38
2023-01-18T19:36:24.958Z,98870.91
2023-01-18T19:41:18.664Z,98886.50
2023-01-18T19:46:14.187Z,98905.06
2023-01-18T19:51:21.169Z,98925.28
2023-01-18T19:56:16.306Z,98936.75
2023-01-18T20:01:26.591Z,98942.06
2023-01-18T20:06:28.239Z,98937.84
2023-01-18T20:11:21.828Z,98928.66
2023-01-18T20:16:15.463Z,98936.91
2023-01-18T20:21:14.526Z,98958.81
2023-01-18T20:26:08.027Z,98966.34
2023-01-18T20:31:03.364Z,98960.72
2023-01-18T20:35:56.908Z,98935.56
2023-01-18T20:40:50.893Z,98954.00
2023-01-18T20:45:45.142Z,98959.88
2023-01-18T20:50:42.720Z,98957.53
2023-01-18T20:55:38.844Z,98965.16
2023-01-18T21:00:32.842Z,98969.72
2023-01-18T21:05:26.891Z,98988.44
2023-01-18T21:10:21.261Z,99001.66
2023-01-18T21:15:15.861Z,98999.88
2023-01-18T21:20:11.182Z,98985.44
2023-01-18T21:25:05.118Z,99009.19
2023-01-18T21:29:58.541Z,99001.97
2023-01-18T21:34:52.521Z,99014.34
2023-01-18T21:39:45.854Z,98974.59
2023-01-18T21:44:58.047Z,98985.03
2023-01-18T21:50:18.500Z,98972.22
2023-01-18T21:55:13.096Z,99007.50
2023-01-18T22:00:07.551Z,98999.56
2023-01-18T22:05:01.578Z,98977.28
2023-01-18T22:10:03.991Z,98988.25
2023-01-18T22:14:59.905Z,99003.63
2023-01-18T22:19:53.465Z,98980.22
2023-01-18T22:24:47.272Z,99036.09
2023-01-18T22:29:41.287Z,99030.94
2023-01-18T22:34:34.917Z,99006.22
2023-01-18T22:39:28.509Z,99005.25
2023-01-18T22:44:21.271Z,99022.69
2023-01-18T22:49:14.985Z,98983.63
2023-01-18T22:54:08.519Z,99013.06
2023-01-18T22:59:01.941Z,99034.13
2023-01-18T23:04:00.726Z,99026.97
2023-01-18T23:08:54.838Z,99022.75
2023-01-18T23:14:09.046Z,99040.38
2023-01-18T23:19:02.807Z,99008.13
2023-01-18T23:23:55.907Z,99015.78
2023-01-18T23:28:49.640Z,98984.38
2023-01-18T23:33:43.686Z,99003.06
2023-01-18T23:38:54.395Z,99024.31
2023-01-18T23:44:06.340Z,99002.31
2023-01-18T23:49:17.989Z,99018.00
2023-01-18T23:54:18.625Z,99009.34
2023-01-18T23:59:11.825Z,99004.03
